createdAt,value
2023-04-12T00:01:51.866Z,9.50
2023-04-12T00:04:18.822Z,9.50
2023-04-12T00:06:48.360Z,9.40
2023-04-12T00:09:18.512Z,9.30
2023-04-12T00:11:45.445Z,9.30
2023-04-12T00:14:12.823Z,9.20
2023-04-12T00:16:39.693Z,9.10
2023-04-12T00:19:06.813Z,9.00
2023-04-12T00:21:33.598Z,8.90
2023-04-12T00:24:01.143Z,8.90
2023-04-12T00:26:28.331Z,8.80
2023-04-12T00:28:55.831Z,8.80
2023-04-12T00:31:22.596Z,8.80
2023-04-12T00:33:49.495Z,8.70
2023-04-12T00:36:16.290Z,8.70
2023-04-12T00:38:43.378Z,8.60
2023-04-12T00:41:10.055Z,8.70
2023-04-12T00:43:36.808Z,8.60
2023-04-12T00:46:03.764Z,8.60
2023-04-12T00:48:31.624Z,8.60
2023-04-12T00:50:58.469Z,8.50
2023-04-12T00:53:25.554Z,8.60
2023-04-12T00:55:53.038Z,8.60
2023-04-12T00:58:24.652Z,8.50
2023-04-12T01:00:52.684Z,8.50
2023-04-12T01:03:22.987Z,8.60
2023-04-12T01:06:35.279Z,8.60
2023-04-12T01:09:12.464Z,8.60
2023-04-12T01:11:49.017Z,8.60
2023-04-12T01:14:41.023Z,8.50
2023-04-12T01:17:14.111Z,8.50
2023-04-12T01:19:57.780Z,8.50
2023-04-12T01:22:53.347Z,8.50
2023-04-12T01:25:39.174Z,8.50
2023-04-12T01:28:12.386Z,8.50
2023-04-12T01:30:40.422Z,8.50
2023-04-12T01:33:11.634Z,8.50
2023-04-12T01:35:40.027Z,8.50
2023-04-12T01:38:09.277Z,8.50
2023-04-12T01:40:40.562Z,8.50
2023-04-12T01:43:12.678Z,8.50
2023-04-12T01:45:39.878Z,8.60
2023-04-12T01:48:08.955Z,8.50
2023-04-12T01:50:40.509Z,8.50
2023-04-12T01:53:13.328Z,8.60
2023-04-12T01:55:45.748Z,8.60
2023-04-12T01:58:14.694Z,8.60
2023-04-12T02:00:44.387Z,8.60
2023-04-12T02:03:12.484Z,8.50
2023-04-12T02:05:41.163Z,8.50
2023-04-12T02:08:08.253Z,8.50
2023-04-12T02:10:36.637Z,8.50
2023-04-12T02:13:04.231Z,8.60
2023-04-12T02:15:31.363Z,8.50
2023-04-12T02:17:59.613Z,8.60
2023-04-12T02:20:27.277Z,8.60
2023-04-12T02:22:54.323Z,8.50
2023-04-12T02:25:21.223Z,8.50
2023-04-12T02:27:48.857Z,8.50
2023-04-12T02:30:15.708Z,8.50
2023-04-12T02:32:45.875Z,8.50
2023-04-12T02:35:20.146Z,8.50
2023-04-12T02:37:51.865Z,8.40
2023-04-12T02:40:18.588Z,8.40
2023-04-12T02:42:45.441Z,8.40
2023-04-12T02:45:13.536Z,8.40
2023-04-12T02:47:41.645Z,8.40
2023-04-12T02:50:13.094Z,8.50
2023-04-12T02:52:57.637Z,8.50
2023-04-12T02:55:25.719Z,8.50
2023-04-12T02:57:53.565Z,8.40
2023-04-12T03:00:21.724Z,8.40
2023-04-12T03:02:58.951Z,8.40
2023-04-12T03:05:28.421Z,8.40
2023-04-12T03:07:55.796Z,8.40
2023-04-12T03:10:35.491Z,8.40
2023-04-12T03:13:04.842Z,8.40
2023-04-12T03:15:49.660Z,8.40
2023-04-12T03:18:17.395Z,8.30
2023-04-12T03:20:48.283Z,8.30
2023-04-12T03:23:15.984Z,8.30
2023-04-12T03:25:46.580Z,8.30
2023-04-12T03:28:33.338Z,8.40
2023-04-12T03:31:04.093Z,8.30
2023-04-12T03:33:39.349Z,8.30
2023-04-12T03:36:09.140Z,8.30
2023-04-12T03:38:35.894Z,8.30
2023-04-12T03:41:03.246Z,8.20
2023-04-12T03:43:37.787Z,8.20
2023-04-12T03:46:15.455Z,8.20
2023-04-12T03:48:42.701Z,8.10
2023-04-12T03:51:12.270Z,8.10
2023-04-12T03:53:43.657Z,8.10
2023-04-12T03:56:14.731Z,8.10
2023-04-12T03:58:44.368Z,8.10
2023-04-12T04:01:13.785Z,8.20
2023-04-12T04:03:42.843Z,8.10
2023-04-12T04:06:19.677Z,8.10
2023-04-12T04:08:46.706Z,8.00
2023-04-12T04:11:14.461Z,8.00
2023-04-12T04:13:46.571Z,8.00
2023-04-12T04:16:18.222Z,8.00
2023-04-12T04:18:45.545Z,8.00
2023-04-12T04:21:14.721Z,8.00
2023-04-12T04:23:44.558Z,8.10
2023-04-12T04:26:11.798Z,8.10
2023-04-12T04:28:52.122Z,8.00
2023-04-12T04:31:26.165Z,8.00
2023-04-12T04:33:53.097Z,8.10
2023-04-12T04:36:26.508Z,8.00
2023-04-12T04:38:55.547Z,8.00
2023-04-12T04:41:39.466Z,8.00
2023-04-12T04:44:11.625Z,8.10
2023-04-12T04:46:45.718Z,8.10
2023-04-12T04:49:12.836Z,8.10
2023-04-12T04:51:39.562Z,8.10
2023-04-12T04:54:07.487Z,8.10
2023-04-12T04:56:35.262Z,8.10
2023-04-12T04:59:05.076Z,8.00
2023-04-12T05:01:31.985Z,8.00
2023-04-12T05:04:01.628Z,8.00
2023-04-12T05:06:28.588Z,8.00
2023-04-12T05:08:57.256Z,8.00
2023-04-12T05:11:24.338Z,8.00
2023-04-12T05:13:51.324Z,8.00
2023-04-12T05:16:18.132Z,8.00
2023-04-12T05:18:44.992Z,8.00
2023-04-12T05:21:11.797Z,8.00
2023-04-12T05:23:43.438Z,8.00
2023-04-12T05:26:12.005Z,8.00
2023-04-12T05:28:40.217Z,8.00
2023-04-12T05:31:09.470Z,8.00
2023-04-12T05:33:38.356Z,8.00
2023-04-12T05:36:05.792Z,8.00
2023-04-12T05:38:33.893Z,8.00
2023-04-12T05:41:05.822Z,8.00
2023-04-12T05:43:33.972Z,8.00
2023-04-12T05:46:01.540Z,8.00
2023-04-12T05:48:28.536Z,8.00
2023-04-12T05:50:57.487Z,8.00
2023-04-12T05:53:24.276Z,8.00
2023-04-12T05:55:51.719Z,8.00
2023-04-12T05:58:19.308Z,8.00
2023-04-12T06:00:49.589Z,8.00
2023-04-12T06:03:16.428Z,8.00
2023-04-12T06:05:43.330Z,8.00
2023-04-12T06:08:10.274Z,8.10
2023-04-12T06:10:36.981Z,8.10
2023-04-12T06:13:04.737Z,8.10
2023-04-12T06:15:33.474Z,8.10
2023-04-12T06:18:00.556Z,8.10
2023-04-12T06:20:27.541Z,8.20
2023-04-12T06:22:55.160Z,8.20
2023-04-12T06:25:22.903Z,8.20
2023-04-12T06:28:04.030Z,8.20
2023-04-12T06:30:32.222Z,8.20
2023-04-12T06:32:59.066Z,8.20
2023-04-12T06:35:25.883Z,8.20
2023-04-12T06:37:53.128Z,8.20
2023-04-12T06:40:19.968Z,8.30
2023-04-12T06:42:46.738Z,8.30
2023-04-12T06:45:15.554Z,8.30
2023-04-12T06:47:42.388Z,8.30
2023-04-12T06:50:09.608Z,8.30
2023-04-12T06:52:36.526Z,8.40
2023-04-12T06:55:03.394Z,8.40
2023-04-12T06:57:30.162Z,8.40
2023-04-12T06:59:56.906Z,8.40
2023-04-12T07:02:23.713Z,8.40
2023-04-12T07:04:54.451Z,8.50
2023-04-12T07:07:21.484Z,8.50
2023-04-12T07:09:48.217Z,8.50
2023-04-12T07:12:14.894Z,8.50
2023-04-12T07:14:43.428Z,8.50
2023-04-12T07:17:11.337Z,8.50
2023-04-12T07:19:38.105Z,8.60
2023-04-12T07:22:08.102Z,8.60
2023-04-12T07:24:34.932Z,8.60
2023-04-12T07:27:01.674Z,8.70
2023-04-12T07:29:28.385Z,8.70
2023-04-12T07:31:55.202Z,8.70
2023-04-12T07:34:22.007Z,8.70
2023-04-12T07:36:48.736Z,8.80
2023-04-12T07:39:15.590Z,8.80
2023-04-12T07:41:46.179Z,8.80
2023-04-12T07:44:12.898Z,8.90
2023-04-12T07:46:41.705Z,8.90
2023-04-12T07:49:10.485Z,8.90
2023-04-12T07:51:37.591Z,9.00
2023-04-12T07:54:04.855Z,9.00
2023-04-12T07:56:35.586Z,9.00
2023-04-12T07:59:02.399Z,9.10
2023-04-12T08:01:29.189Z,9.20
2023-04-12T08:04:02.152Z,9.20
2023-04-12T08:06:31.743Z,9.20
2023-04-12T08:08:59.916Z,9.20
2023-04-12T08:11:31.500Z,9.20
2023-04-12T08:13:58.448Z,9.20
2023-04-12T08:16:25.817Z,9.30
2023-04-12T08:18:52.677Z,9.40
2023-04-12T08:21:19.676Z,9.50
2023-04-12T08:23:46.788Z,9.60
2023-04-12T08:26:13.425Z,9.70
2023-04-12T08:28:40.277Z,9.90
2023-04-12T08:31:08.160Z,10.00
2023-04-12T08:33:34.905Z,10.10
2023-04-12T08:36:01.919Z,10.20
2023-04-12T08:38:44.178Z,10.20
2023-04-12T08:41:13.165Z,10.30
2023-04-12T08:43:48.029Z,10.30
2023-04-12T08:46:16.121Z,10.30
2023-04-12T08:48:47.797Z,10.30
2023-04-12T08:51:19.228Z,10.40
2023-04-12T08:53:45.980Z,10.50
2023-04-12T08:56:14.130Z,10.50
2023-04-12T08:58:44.706Z,10.60
2023-04-12T09:01:14.160Z,10.70
2023-04-12T09:03:44.834Z,10.80
2023-04-12T09:06:13.331Z,10.90
2023-04-12T09:08:57.074Z,10.90
2023-04-12T09:11:28.858Z,10.90
2023-04-12T09:13:57.620Z,10.90
2023-04-12T09:16:54.660Z,10.90
2023-04-12T09:19:47.558Z,10.90
2023-04-12T09:22:14.689Z,11.00
2023-04-12T09:24:50.424Z,11.10
2023-04-12T09:27:21.015Z,11.10
2023-04-12T09:29:51.964Z,11.10
2023-04-12T09:32:29.113Z,11.30
2023-04-12T09:35:06.397Z,11.50
2023-04-12T09:37:33.149Z,11.60
2023-04-12T09:40:07.120Z,11.60
2023-04-12T09:42:35.923Z,11.60
2023-04-12T09:45:26.540Z,11.60
2023-04-12T09:47:54.777Z,11.70
2023-04-12T09:50:24.033Z,11.70
2023-04-12T09:52:51.459Z,11.70
2023-04-12T09:55:20.957Z,11.60
2023-04-12T09:57:50.809Z,11.60
2023-04-12T10:00:18.450Z,11.50
2023-04-12T10:02:51.822Z,11.50
2023-04-12T10:05:26.228Z,11.50
2023-04-12T10:07:54.786Z,11.50
2023-04-12T10:10:22.888Z,11.50
2023-04-12T10:12:51.126Z,11.60
2023-04-12T10:15:21.052Z,11.70
2023-04-12T10:17:55.286Z,11.90
2023-04-12T10:20:26.213Z,11.90
2023-04-12T10:22:59.467Z,11.90
2023-04-12T10:25:33.504Z,11.90
2023-04-12T10:28:15.564Z,12.10
2023-04-12T10:30:42.417Z,12.20
2023-04-12T10:33:14.114Z,12.40
2023-04-12T10:35:57.527Z,12.50
2023-04-12T10:38:26.867Z,12.70
2023-04-12T10:41:18.565Z,12.80
2023-04-12T10:43:47.170Z,12.90
2023-04-12T10:46:39.657Z,12.70
2023-04-12T10:49:09.609Z,12.50
2023-04-12T10:51:36.715Z,12.30
2023-04-12T10:54:19.201Z,12.10
2023-04-12T10:56:47.157Z,11.90
2023-04-12T10:59:56.491Z,11.70
2023-04-12T11:02:23.550Z,11.40
2023-04-12T11:05:11.701Z,11.20
2023-04-12T11:08:03.719Z,11.20
2023-04-12T11:10:39.549Z,11.20
2023-04-12T11:13:08.914Z,11.20
2023-04-12T11:15:39.671Z,11.20
2023-04-12T11:18:12.359Z,11.30
2023-04-12T11:20:40.887Z,11.60
2023-04-12T11:23:10.645Z,12.10
2023-04-12T11:25:38.627Z,12.70
2023-04-12T11:28:17.179Z,13.40
2023-04-12T11:30:58.576Z,13.70
2023-04-12T11:33:36.797Z,14.10
2023-04-12T11:36:09.041Z,13.90
2023-04-12T11:38:37.785Z,13.50
2023-04-12T11:41:06.965Z,13.20
2023-04-12T11:43:34.651Z,13.00
2023-04-12T11:46:02.185Z,13.10
2023-04-12T11:48:29.801Z,13.50
2023-04-12T11:51:10.427Z,13.90
2023-04-12T11:53:38.041Z,14.30
2023-04-12T11:56:05.056Z,14.30
2023-04-12T11:58:32.784Z,14.20
2023-04-12T12:01:00.296Z,14.30
2023-04-12T12:03:27.588Z,14.30
2023-04-12T12:05:54.682Z,14.50
2023-04-12T12:08:21.961Z,14.60
2023-04-12T12:11:06.378Z,14.60
2023-04-12T12:13:50.139Z,14.60
2023-04-12T12:16:17.721Z,14.80
2023-04-12T12:18:46.252Z,14.60
2023-04-12T12:21:14.527Z,14.70
2023-04-12T12:23:44.883Z,14.70
2023-04-12T12:26:23.307Z,14.90
2023-04-12T12:28:52.307Z,15.10
2023-04-12T12:31:23.971Z,15.40
2023-04-12T12:33:56.711Z,15.80
2023-04-12T12:36:32.044Z,15.50
2023-04-12T12:39:07.532Z,15.00
2023-04-12T12:41:34.834Z,14.80
2023-04-12T12:44:01.888Z,14.50
2023-04-12T12:46:44.571Z,14.00
2023-04-12T12:49:17.082Z,13.60
2023-04-12T12:51:44.023Z,13.50
2023-04-12T12:54:10.958Z,13.20
2023-04-12T12:56:37.811Z,13.00
2023-04-12T12:59:04.544Z,13.10
2023-04-12T13:01:31.406Z,13.20
2023-04-12T13:03:59.012Z,13.30
2023-04-12T13:06:27.242Z,13.30
2023-04-12T13:08:57.952Z,13.10
2023-04-12T13:11:24.875Z,13.10
2023-04-12T13:13:51.765Z,13.10
2023-04-12T13:16:22.891Z,13.00
2023-04-12T13:18:50.782Z,13.50
2023-04-12T13:21:17.517Z,14.40
2023-04-12T13:23:44.226Z,14.60
2023-04-12T13:26:11.192Z,14.30
2023-04-12T13:28:37.986Z,13.90
2023-04-12T13:31:04.961Z,13.90
2023-04-12T13:33:33.861Z,13.70
2023-04-12T13:36:00.972Z,13.50
2023-04-12T13:38:27.655Z,13.60
2023-04-12T13:40:56.506Z,13.40
2023-04-12T13:43:23.417Z,13.40
2023-04-12T13:45:50.769Z,13.50
2023-04-12T13:48:17.830Z,13.60
2023-04-12T13:50:44.896Z,13.90
2023-04-12T13:53:11.760Z,14.00
2023-04-12T13:55:38.533Z,13.90
2023-04-12T13:58:05.230Z,13.80
2023-04-12T14:00:32.023Z,13.70
2023-04-12T14:02:58.993Z,13.60
2023-04-12T14:05:25.957Z,13.50
2023-04-12T14:07:52.786Z,13.40
2023-04-12T14:10:28.682Z,13.40
2023-04-12T14:13:07.765Z,13.40
2023-04-12T14:15:55.798Z,13.50
2023-04-12T14:18:25.958Z,13.90
2023-04-12T14:21:12.995Z,14.50
2023-04-12T14:23:41.398Z,14.60
2023-04-12T14:26:08.292Z,14.20
2023-04-12T14:28:35.474Z,13.70
2023-04-12T14:31:04.964Z,13.20
2023-04-12T14:33:33.119Z,12.80
2023-04-12T14:36:04.928Z,12.50
2023-04-12T14:38:32.231Z,12.10
2023-04-12T14:40:59.130Z,12.00
2023-04-12T14:43:26.305Z,12.00
2023-04-12T14:45:53.294Z,11.90
2023-04-12T14:48:22.799Z,12.10
2023-04-12T14:50:49.709Z,12.80
2023-04-12T14:53:18.271Z,13.80
2023-04-12T14:55:46.652Z,15.00
2023-04-12T14:58:13.787Z,16.20
2023-04-12T15:00:41.397Z,17.00
2023-04-12T15:03:08.645Z,17.50
2023-04-12T15:05:36.371Z,16.90
2023-04-12T15:08:04.335Z,16.10
2023-04-12T15:10:31.787Z,15.30
2023-04-12T15:12:58.513Z,14.90
2023-04-12T15:15:25.288Z,14.60
2023-04-12T15:17:53.208Z,14.30
2023-04-12T15:20:20.048Z,14.20
2023-04-12T15:22:50.099Z,14.00
2023-04-12T15:25:16.824Z,13.90
2023-04-12T15:27:46.705Z,13.60
2023-04-12T15:30:15.507Z,13.30
2023-04-12T15:32:42.519Z,13.00
2023-04-12T15:35:25.308Z,12.80
2023-04-12T15:37:54.842Z,12.70
2023-04-12T15:40:22.853Z,12.70
2023-04-12T15:42:49.841Z,12.70
2023-04-12T15:45:17.016Z,12.50
2023-04-12T15:47:45.774Z,12.50
2023-04-12T15:50:13.160Z,12.50
2023-04-12T15:52:43.133Z,12.60
2023-04-12T15:55:11.769Z,12.60
2023-04-12T15:57:40.331Z,12.60
2023-04-12T16:00:27.022Z,12.70
2023-04-12T16:02:56.297Z,12.90
2023-04-12T16:05:27.072Z,12.80
2023-04-12T16:07:54.519Z,12.70
2023-04-12T16:10:22.247Z,12.70
2023-04-12T16:12:50.766Z,12.80
2023-04-12T16:15:30.294Z,12.70
2023-04-12T16:18:00.495Z,12.70
2023-04-12T16:20:27.558Z,12.70
2023-04-12T16:22:54.710Z,12.60
2023-04-12T16:25:27.336Z,12.60
2023-04-12T16:28:02.407Z,12.70
2023-04-12T16:30:30.974Z,12.70
2023-04-12T16:32:58.127Z,12.60
2023-04-12T16:35:24.878Z,12.60
2023-04-12T16:37:52.225Z,12.50
2023-04-12T16:40:19.061Z,12.40
2023-04-12T16:42:45.889Z,12.30
2023-04-12T16:45:14.843Z,12.30
2023-04-12T16:47:45.109Z,12.10
2023-04-12T16:50:14.647Z,11.90
2023-04-12T16:52:41.962Z,11.70
2023-04-12T16:55:11.927Z,11.60
2023-04-12T16:57:44.086Z,11.60
2023-04-12T17:00:22.109Z,11.50
2023-04-12T17:02:50.120Z,11.30
2023-04-12T17:05:18.212Z,11.30
2023-04-12T17:07:50.310Z,11.30
2023-04-12T17:10:17.995Z,11.20
2023-04-12T17:12:50.064Z,11.20
2023-04-12T17:15:18.364Z,11.10
2023-04-12T17:17:51.247Z,11.10
2023-04-12T17:20:19.824Z,11.00
2023-04-12T17:22:47.504Z,11.10
2023-04-12T17:25:14.419Z,11.10
2023-04-12T17:27:41.745Z,11.00
2023-04-12T17:30:10.779Z,11.00
2023-04-12T17:32:37.960Z,10.90
2023-04-12T17:35:06.767Z,10.80
2023-04-12T17:37:34.801Z,10.70
2023-04-12T17:40:02.081Z,10.60
2023-04-12T17:42:28.736Z,10.60
2023-04-12T17:44:55.373Z,10.60
2023-04-12T17:47:23.025Z,10.60
2023-04-12T17:49:50.001Z,10.50
2023-04-12T17:52:17.404Z,10.40
2023-04-12T17:54:44.433Z,10.30
2023-04-12T17:57:11.521Z,10.30
2023-04-12T17:59:38.260Z,10.20
2023-04-12T18:02:05.428Z,10.20
2023-04-12T18:04:32.425Z,10.10
2023-04-12T18:06:59.257Z,10.00
2023-04-12T18:09:29.200Z,10.00
2023-04-12T18:11:56.482Z,9.90
2023-04-12T18:14:32.868Z,9.90
2023-04-12T18:17:00.200Z,9.80
2023-04-12T18:19:26.944Z,9.80
2023-04-12T18:21:53.675Z,9.80
2023-04-12T18:24:23.065Z,9.70
2023-04-12T18:26:49.909Z,9.70
2023-04-12T18:29:17.767Z,9.60
2023-04-12T18:31:44.968Z,9.60
2023-04-12T18:34:14.300Z,9.50
2023-04-12T18:36:42.429Z,9.50
2023-04-12T18:39:09.185Z,9.50
2023-04-12T18:41:35.992Z,9.50
2023-04-12T18:44:03.356Z,9.40
2023-04-12T18:46:30.604Z,9.40
2023-04-12T18:48:58.580Z,9.30
2023-04-12T18:51:25.579Z,9.30
2023-04-12T18:53:52.417Z,9.20
2023-04-12T18:56:24.515Z,9.20
2023-04-12T18:58:56.782Z,9.10
2023-04-12T19:01:24.745Z,9.10
2023-04-12T19:03:52.299Z,9.00
2023-04-12T19:06:19.550Z,9.00
2023-04-12T19:08:49.928Z,9.00
2023-04-12T19:11:16.714Z,8.90
2023-04-12T19:13:44.029Z,8.90
2023-04-12T19:16:11.607Z,8.90
2023-04-12T19:18:38.454Z,8.90
2023-04-12T19:21:06.493Z,8.80
2023-04-12T19:23:33.231Z,8.80
2023-04-12T19:26:00.574Z,8.80
2023-04-12T19:28:28.020Z,8.70
2023-04-12T19:30:56.867Z,8.70
2023-04-12T19:33:24.610Z,8.60
2023-04-12T19:35:56.211Z,8.60
2023-04-12T19:38:23.006Z,8.50
2023-04-12T19:40:51.069Z,8.50
2023-04-12T19:43:20.973Z,8.40
2023-04-12T19:45:47.757Z,8.40
2023-04-12T19:48:14.482Z,8.40
2023-04-12T19:50:41.587Z,8.40
2023-04-12T19:53:08.501Z,8.30
2023-04-12T19:55:35.792Z,8.30
2023-04-12T19:58:03.468Z,8.30
2023-04-12T20:00:30.513Z,8.30
2023-04-12T20:02:57.529Z,8.30
2023-04-12T20:05:24.998Z,8.30
2023-04-12T20:07:55.181Z,8.30
2023-04-12T20:10:22.089Z,8.20
2023-04-12T20:12:49.190Z,8.20
2023-04-12T20:15:17.545Z,8.20
2023-04-12T20:17:45.719Z,8.20
2023-04-12T20:20:14.320Z,8.20
2023-04-12T20:22:42.869Z,8.20
2023-04-12T20:25:14.662Z,8.10
2023-04-12T20:27:41.441Z,8.20
2023-04-12T20:30:10.986Z,8.20
2023-04-12T20:32:40.851Z,8.20
2023-04-12T20:35:08.519Z,8.20
2023-04-12T20:37:35.233Z,8.20
2023-04-12T20:40:06.010Z,8.10
2023-04-12T20:42:32.680Z,8.10
2023-04-12T20:44:59.386Z,8.10
2023-04-12T20:47:27.357Z,8.10
2023-04-12T20:49:56.096Z,8.10
2023-04-12T20:52:22.791Z,8.20
2023-04-12T20:54:49.540Z,8.10
2023-04-12T20:57:19.600Z,8.10
2023-04-12T20:59:46.755Z,8.10
2023-04-12T21:02:15.294Z,8.20
2023-04-12T21:04:42.115Z,8.10
2023-04-12T21:07:09.543Z,8.20
2023-04-12T21:09:36.742Z,8.20
2023-04-12T21:12:07.114Z,8.10
2023-04-12T21:14:34.948Z,8.20
2023-04-12T21:17:06.859Z,8.20
2023-04-12T21:19:38.864Z,8.20
2023-04-12T21:22:07.158Z,8.10
2023-04-12T21:24:38.142Z,8.10
2023-04-12T21:27:07.284Z,8.10
2023-04-12T21:29:37.357Z,8.10
2023-04-12T21:32:05.598Z,8.00
2023-04-12T21:34:33.691Z,8.00
2023-04-12T21:37:01.342Z,8.00
2023-04-12T21:39:28.946Z,8.00
2023-04-12T21:41:57.855Z,8.00
2023-04-12T21:44:25.155Z,8.00
2023-04-12T21:46:51.961Z,7.90
2023-04-12T21:49:18.685Z,7.90
2023-04-12T21:51:47.013Z,7.90
2023-04-12T21:54:13.921Z,8.00
2023-04-12T21:56:40.725Z,8.00
2023-04-12T21:59:08.245Z,8.00
2023-04-12T22:01:38.007Z,8.00
2023-04-12T22:04:04.907Z,8.00
2023-04-12T22:06:34.612Z,8.10
2023-04-12T22:09:04.394Z,8.10
2023-04-12T22:11:31.221Z,8.20
2023-04-12T22:13:58.026Z,8.20
2023-04-12T22:16:24.886Z,8.20
2023-04-12T22:18:52.820Z,8.30
2023-04-12T22:21:19.810Z,8.20
2023-04-12T22:23:46.789Z,8.20
2023-04-12T22:26:13.632Z,8.20
2023-04-12T22:28:42.513Z,8.00
2023-04-12T22:31:14.319Z,7.80
2023-04-12T22:33:41.657Z,7.70
2023-04-12T22:36:09.378Z,7.50
2023-04-12T22:38:37.135Z,7.40
2023-04-12T22:41:04.087Z,7.30
2023-04-12T22:43:34.151Z,7.30
2023-04-12T22:46:02.201Z,7.30
2023-04-12T22:48:32.120Z,7.20
2023-04-12T22:51:03.528Z,7.20
2023-04-12T22:53:33.151Z,7.10
2023-04-12T22:55:59.849Z,7.00
2023-04-12T22:58:27.333Z,6.90
2023-04-12T23:00:53.977Z,6.90
2023-04-12T23:03:21.549Z,6.70
2023-04-12T23:05:50.707Z,6.60
2023-04-12T23:08:21.863Z,6.50
2023-04-12T23:10:49.494Z,6.50
2023-04-12T23:13:16.210Z,6.40
2023-04-12T23:15:43.054Z,6.40
2023-04-12T23:18:10.949Z,6.40
2023-04-12T23:20:38.433Z,6.30
2023-04-12T23:23:05.714Z,6.30
2023-04-12T23:25:43.417Z,6.30
2023-04-12T23:28:15.073Z,6.30
2023-04-12T23:30:44.164Z,6.30
2023-04-12T23:33:12.432Z,6.30
2023-04-12T23:35:41.209Z,6.40
2023-04-12T23:38:09.155Z,6.40
2023-04-12T23:40:38.348Z,6.40
2023-04-12T23:43:05.090Z,6.40
2023-04-12T23:45:32.409Z,6.40
2023-04-12T23:47:59.294Z,6.40
2023-04-12T23:50:26.139Z,6.40
2023-04-12T23:52:56.000Z,6.50
2023-04-12T23:55:22.684Z,6.50
2023-04-12T23:57:49.453Z,6.50
